Time;durP1;ratioP1;P1;durP2;ratioP2;P2;SDS_P1;SDS_P2;PMS_P1;PMS_P2;Temp;Humidity;BMP_temperature;BMP_pressure;BME280_temperature;BME280_humidity;BME280_pressure;Samples;Min_cycle;Max_cycle;Signal;HPM_P1;HPM_P2
2022/08/03 00:01:42;;;;;;;21.50;2.95;;;22.00;99.90;;;;;;5032129;28;20537;-85
2022/08/03 00:04:08;;;;;;;11.30;2.75;;;22.00;99.90;;;;;;5032289;28;20014;-87
2022/08/03 00:06:35;;;;;;;12.50;2.92;;;22.10;99.90;;;;;;5033371;28;20026;-87
2022/08/03 00:09:02;;;;;;;8.32;2.67;;;22.40;99.90;;;;;;5033223;28;20071;-86
2022/08/03 00:11:27;;;;;;;8.80;2.90;;;22.40;99.90;;;;;;5033434;28;20021;-85
2022/08/03 00:13:53;;;;;;;14.18;3.22;;;22.30;99.90;;;;;;5033166;28;20026;-87
2022/08/03 00:16:19;;;;;;;8.05;2.20;;;22.40;99.90;;;;;;5033257;28;20025;-87
2022/08/03 00:18:45;;;;;;;10.85;2.92;;;22.40;99.90;;;;;;5033080;28;20067;-85
2022/08/03 00:21:11;;;;;;;11.45;3.00;;;22.30;99.90;;;;;;5031496;28;20037;-85
2022/08/03 00:23:37;;;;;;;8.38;2.20;;;22.40;99.90;;;;;;5031391;28;20439;-85
2022/08/03 00:26:03;;;;;;;7.85;2.70;;;22.20;99.90;;;;;;5031977;28;20029;-85
2022/08/03 00:28:28;;;;;;;20.00;2.58;;;22.30;99.90;;;;;;5031795;28;20023;-85
2022/08/03 00:30:54;;;;;;;8.60;2.15;;;22.30;99.90;;;;;;5031706;28;20118;-84
2022/08/03 00:33:21;;;;;;;11.45;2.38;;;22.50;99.90;;;;;;5032946;28;20025;-87
2022/08/03 00:35:47;;;;;;;12.32;2.97;;;22.50;99.90;;;;;;5031526;28;20432;-84
2022/08/03 00:38:13;;;;;;;11.90;2.95;;;22.60;99.90;;;;;;5031577;28;20113;-88
2022/08/03 00:40:39;;;;;;;13.15;2.78;;;22.20;99.90;;;;;;5031484;28;20175;-84
2022/08/03 00:43:06;;;;;;;20.27;3.10;;;21.90;99.90;;;;;;5032920;28;20026;-88
2022/08/03 00:45:34;;;;;;;9.10;2.70;;;22.10;99.90;;;;;;5031454;28;20108;-85
2022/08/03 00:48:00;;;;;;;17.15;2.80;;;22.30;99.90;;;;;;5032773;28;20029;-88
2022/08/03 00:50:28;;;;;;;13.40;2.22;;;21.70;99.90;;;;;;5020960;28;20044;-85
2022/08/03 00:52:56;;;;;;;12.85;2.92;;;21.40;99.90;;;;;;5029802;28;20092;-89
2022/08/03 00:55:23;;;;;;;11.93;2.03;;;21.10;99.90;;;;;;5032741;28;20477;-88
2022/08/03 00:57:49;;;;;;;13.80;2.35;;;21.20;99.90;;;;;;5032734;28;20026;-85
2022/08/03 01:00:19;;;;;;;7.00;2.03;;;21.30;99.90;;;;;;5032445;28;20037;-90
2022/08/03 01:02:45;;;;;;;11.55;2.25;;;21.60;99.90;;;;;;5032599;28;20034;-86
2022/08/03 01:05:12;;;;;;;12.82;2.53;;;21.60;99.90;;;;;;5021910;28;20105;-85
2022/08/03 01:07:55;;;;;;;7.75;2.25;;;21.70;99.90;;;;;;5012939;28;20022;-84
2022/08/03 01:10:45;;;;;;;8.93;2.15;;;21.80;99.90;;;;;;5014999;28;20068;-85
2022/08/03 01:13:29;;;;;;;18.83;2.80;;;21.70;99.90;;;;;;5019929;28;20049;-86
2022/08/03 01:16:00;;;;;;;16.15;2.95;;;21.80;99.90;;;;;;5020494;28;20037;-86
2022/08/03 01:18:41;;;;;;;9.63;3.13;;;21.70;99.90;;;;;;5032576;28;20048;-85
2022/08/03 01:21:13;;;;;;;5.15;2.33;;;21.70;99.90;;;;;;5032309;28;20041;-90
2022/08/03 01:24:09;;;;;;;7.72;2.20;;;21.40;99.90;;;;;;5018551;28;20034;-84
2022/08/03 01:27:10;;;;;;;12.27;2.25;;;21.20;99.90;;;;;;5031623;28;20040;-90
2022/08/03 01:30:02;;;;;;;6.40;2.13;;;21.00;99.90;;;;;;5032826;28;20037;-90
2022/08/03 01:32:47;;;;;;;12.30;2.60;;;21.20;99.90;;;;;;5033713;28;20097;-89
2022/08/03 01:35:16;;;;;;;8.02;2.60;;;21.20;99.90;;;;;;5036305;28;20118;-86
2022/08/03 01:37:53;;;;;;;11.32;3.05;;;21.30;99.90;;;;;;5036511;28;20022;-89
2022/08/03 01:40:20;;;;;;;11.55;3.28;;;21.30;99.90;;;;;;5021899;28;20077;-87
2022/08/03 01:42:47;;;;;;;13.43;2.67;;;21.40;99.90;;;;;;5035599;28;20009;-85
2022/08/03 01:45:17;;;;;;;14.80;2.63;;;21.20;99.90;;;;;;5036507;28;20037;-86
2022/08/03 01:47:45;;;;;;;10.73;2.97;;;21.20;99.90;;;;;;5036167;28;20057;-90
2022/08/03 01:50:13;;;;;;;8.45;2.22;;;21.00;99.90;;;;;;5036065;28;20025;-90
2022/08/03 01:52:41;;;;;;;6.68;2.67;;;21.00;99.90;;;;;;5035794;28;20025;-85
2022/08/03 01:55:08;;;;;;;15.60;3.03;;;20.80;99.90;;;;;;5035988;28;20040;-89
2022/08/03 01:57:36;;;;;;;6.43;2.20;;;21.00;99.90;;;;;;5034685;28;20410;-85
2022/08/03 02:00:04;;;;;;;7.25;2.47;;;20.90;99.90;;;;;;5035667;28;20029;-89
2022/08/03 02:02:38;;;;;;;16.63;2.97;;;21.00;99.90;;;;;;5035576;28;20025;-85
2022/08/03 02:05:07;;;;;;;6.32;2.58;;;20.80;99.90;;;;;;5034319;28;20030;-89
2022/08/03 02:07:33;;;;;;;10.07;2.83;;;20.70;99.90;;;;;;5018098;28;20431;-88
2022/08/03 02:10:01;;;;;;;12.02;2.90;;;20.50;99.90;;;;;;5034548;28;20049;-85
2022/08/03 02:12:30;;;;;;;12.68;2.90;;;20.70;99.90;;;;;;5034323;28;20025;-85
2022/08/03 02:14:57;;;;;;;9.45;2.83;;;20.60;99.90;;;;;;5021364;28;20033;-85
2022/08/03 02:17:25;;;;;;;13.05;2.28;;;20.60;99.90;;;;;;5035661;28;20036;-87
2022/08/03 02:19:52;;;;;;;10.80;2.70;;;20.80;99.90;;;;;;5035152;28;20044;-85
2022/08/03 02:22:17;;;;;;;11.73;2.85;;;20.60;99.90;;;;;;5035474;28;20037;-87
2022/08/03 02:24:43;;;;;;;12.68;2.70;;;20.60;99.90;;;;;;5034194;28;20026;-85
2022/08/03 02:27:18;;;;;;;8.20;2.47;;;20.70;99.90;;;;;;5033922;28;20531;-85
2022/08/03 02:29:48;;;;;;;11.00;2.65;;;21.00;99.90;;;;;;5035657;28;20068;-87
2022/08/03 02:32:19;;;;;;;7.88;2.47;;;21.20;99.90;;;;;;5034753;28;20029;-88
2022/08/03 02:34:49;;;;;;;5.88;2.63;;;21.20;99.90;;;;;;5035313;28;20083;-89
2022/08/03 02:37:18;;;;;;;13.48;2.70;;;21.20;99.90;;;;;;5034995;28;20028;-88
2022/08/03 02:39:46;;;;;;;11.40;2.28;;;20.70;99.90;;;;;;5033814;28;20030;-87
2022/08/03 02:42:14;;;;;;;11.60;2.75;;;20.80;99.90;;;;;;5033673;28;20053;-89
2022/08/03 02:44:46;;;;;;;12.27;2.35;;;20.80;99.90;;;;;;5033478;28;20390;-88
2022/08/03 02:47:14;;;;;;;12.10;3.08;;;20.80;99.90;;;;;;5033330;28;20065;-85
2022/08/03 02:49:41;;;;;;;18.27;2.80;;;20.90;99.90;;;;;;5035007;28;20024;-88
2022/08/03 02:52:11;;;;;;;11.20;2.50;;;20.80;99.90;;;;;;5033508;28;20084;-85
2022/08/03 02:54:38;;;;;;;12.02;2.60;;;20.80;99.90;;;;;;5034811;28;20026;-86
2022/08/03 02:57:07;;;;;;;11.23;2.30;;;21.00;99.90;;;;;;5033388;28;20121;-86
2022/08/03 02:59:34;;;;;;;8.77;2.45;;;20.90;99.90;;;;;;5033431;28;20088;-89
2022/08/03 03:02:01;;;;;;;10.15;2.20;;;20.90;99.90;;;;;;5033038;28;20456;-86
2022/08/03 03:04:29;;;;;;;11.68;2.60;;;20.70;99.90;;;;;;5034551;28;20071;-89
2022/08/03 03:06:56;;;;;;;16.25;3.00;;;20.80;99.90;;;;;;5034771;28;20531;-86
2022/08/03 03:09:22;;;;;;;8.68;2.22;;;20.90;99.90;;;;;;5033445;28;20075;-89
2022/08/03 03:11:49;;;;;;;10.38;2.70;;;20.70;99.90;;;;;;5034684;28;20105;-85
2022/08/03 03:14:17;;;;;;;8.60;2.33;;;20.60;99.90;;;;;;5022783;28;20040;-90
2022/08/03 03:16:45;;;;;;;9.85;2.70;;;20.60;99.90;;;;;;5030953;28;20021;-88
2022/08/03 03:19:14;;;;;;;6.25;2.63;;;20.40;99.90;;;;;;5034387;28;20021;-85
2022/08/03 03:21:42;;;;;;;19.23;2.80;;;20.40;99.90;;;;;;5034215;28;20446;-85
2022/08/03 03:24:09;;;;;;;15.00;2.85;;;20.30;99.90;;;;;;5032847;28;20113;-88
2022/08/03 03:26:36;;;;;;;11.48;2.92;;;20.20;99.90;;;;;;5034340;28;20033;-89
2022/08/03 03:29:02;;;;;;;9.00;2.90;;;20.00;99.90;;;;;;5016674;28;20072;-88
2022/08/03 03:31:28;;;;;;;11.07;2.65;;;19.90;99.90;;;;;;5033847;28;20041;-84
2022/08/03 03:33:57;;;;;;;9.93;2.58;;;19.90;99.90;;;;;;5033848;28;20061;-85
2022/08/03 03:36:23;;;;;;;11.02;3.20;;;19.80;99.90;;;;;;5034233;28;20489;-89
2022/08/03 03:38:49;;;;;;;12.88;2.28;;;19.90;99.90;;;;;;5033757;28;20025;-85
2022/08/03 03:41:15;;;;;;;10.10;2.28;;;19.90;99.90;;;;;;5034098;28;20175;-86
2022/08/03 03:43:41;;;;;;;10.10;2.83;;;19.90;99.90;;;;;;5032344;28;20513;-88
2022/08/03 03:46:07;;;;;;;12.02;2.55;;;20.10;99.90;;;;;;5033669;28;20040;-85
2022/08/03 03:48:33;;;;;;;14.32;2.70;;;20.00;99.90;;;;;;5033905;28;20025;-88
2022/08/03 03:50:59;;;;;;;11.10;2.38;;;20.20;99.90;;;;;;5032416;28;20033;-87
2022/08/03 03:53:25;;;;;;;14.13;2.72;;;20.20;99.90;;;;;;5033608;28;20019;-85
2022/08/03 03:55:52;;;;;;;7.70;2.70;;;20.20;99.90;;;;;;5032155;28;20381;-86
2022/08/03 03:58:19;;;;;;;9.85;2.85;;;19.80;99.90;;;;;;5032060;28;20030;-85
2022/08/03 04:00:47;;;;;;;7.47;2.47;;;19.60;99.90;;;;;;5033105;28;20136;-86
2022/08/03 04:03:12;;;;;;;10.07;2.40;;;19.50;99.90;;;;;;5033652;28;20021;-86
2022/08/03 04:11:21;;;;;;;9.90;2.78;;;19.70;99.90;;;;;;5032798;28;20029;-88
2022/08/03 04:14:08;;;;;;;18.15;2.85;;;19.80;99.90;;;;;;5024792;28;20029;-85
2022/08/03 04:16:37;;;;;;;16.77;2.85;;;19.90;99.90;;;;;;5029985;28;20034;-86
2022/08/03 04:19:44;;;;;;;10.55;3.00;;;19.90;99.90;;;;;;5033077;28;20053;-85
2022/08/03 04:22:12;;;;;;;9.20;2.17;;;19.80;99.90;;;;;;5031700;28;20128;-89
2022/08/03 04:24:50;;;;;;;10.38;2.35;;;19.80;99.90;;;;;;5033205;28;20025;-85
2022/08/03 04:27:24;;;;;;;12.00;3.25;;;19.80;99.90;;;;;;5032067;28;20124;-85
2022/08/03 04:29:53;;;;;;;10.88;2.75;;;19.80;99.90;;;;;;5032758;28;20072;-88
2022/08/03 04:32:22;;;;;;;15.20;3.25;;;19.70;99.90;;;;;;5033318;28;20025;-85
2022/08/03 04:34:48;;;;;;;8.48;2.60;;;19.50;99.90;;;;;;5032880;28;20498;-84
2022/08/03 04:37:23;;;;;;;8.23;2.95;;;19.30;99.90;;;;;;5032940;28;20424;-86
2022/08/03 04:39:50;;;;;;;13.30;2.60;;;19.40;99.90;;;;;;5032827;28;20029;-85
2022/08/03 04:42:19;;;;;;;18.15;3.75;;;19.30;99.90;;;;;;5033070;28;20112;-86
2022/08/03 04:44:47;;;;;;;9.90;2.58;;;19.50;99.90;;;;;;5032628;28;20382;-85
2022/08/03 04:47:13;;;;;;;10.23;2.70;;;19.60;99.90;;;;;;5032942;28;20497;-85
2022/08/03 04:49:39;;;;;;;14.90;2.33;;;19.70;99.90;;;;;;5032729;28;20072;-85
2022/08/03 04:52:08;;;;;;;15.38;3.47;;;19.90;99.90;;;;;;5032820;28;20155;-89
2022/08/03 04:54:42;;;;;;;5.72;2.40;;;19.60;99.90;;;;;;5032627;28;20109;-89
2022/08/03 04:57:08;;;;;;;17.65;3.55;;;19.70;99.90;;;;;;5032427;28;20029;-84
2022/08/03 04:59:34;;;;;;;11.95;2.97;;;19.90;99.90;;;;;;5031293;28;20589;-86
2022/08/03 05:02:00;;;;;;;9.50;2.90;;;19.90;99.90;;;;;;5032842;28;20112;-89
2022/08/03 05:04:26;;;;;;;12.95;2.90;;;20.10;99.90;;;;;;5031468;28;20021;-85
2022/08/03 05:06:51;;;;;;;10.63;2.70;;;20.10;99.90;;;;;;5034713;28;20025;-88
2022/08/03 05:09:17;;;;;;;10.50;2.60;;;20.10;99.90;;;;;;5036658;28;20529;-87
2022/08/03 05:11:43;;;;;;;13.77;2.92;;;20.00;99.90;;;;;;5036563;28;20021;-87
2022/08/03 05:14:09;;;;;;;16.67;3.20;;;20.20;99.90;;;;;;5026055;28;20112;-89
2022/08/03 05:16:35;;;;;;;11.38;3.05;;;20.20;99.90;;;;;;5033386;28;20152;-86
2022/08/03 05:19:01;;;;;;;12.35;2.80;;;20.20;99.90;;;;;;5035459;28;20671;-88
2022/08/03 05:21:27;;;;;;;11.65;3.10;;;20.20;99.90;;;;;;5036133;28;20108;-87
2022/08/03 05:23:52;;;;;;;17.60;3.28;;;20.30;99.90;;;;;;5036476;28;20052;-87
2022/08/03 05:26:18;;;;;;;13.80;3.42;;;20.30;99.90;;;;;;5036091;28;20025;-87
2022/08/03 05:28:44;;;;;;;16.17;3.33;;;20.10;99.90;;;;;;5036358;28;20018;-90
2022/08/03 05:31:10;;;;;;;14.30;3.30;;;20.00;99.90;;;;;;5035136;28;20036;-88
2022/08/03 05:33:36;;;;;;;17.30;3.92;;;20.20;99.90;;;;;;5036524;28;20048;-88
2022/08/03 05:36:02;;;;;;;7.60;2.90;;;20.10;99.90;;;;;;5018634;28;20057;-84
2022/08/03 05:38:28;;;;;;;16.85;2.83;;;20.10;99.90;;;;;;5035062;28;20533;-84
2022/08/03 05:40:54;;;;;;;17.83;3.13;;;20.10;99.90;;;;;;5035935;28;20075;-86
2022/08/03 05:43:20;;;;;;;12.70;3.08;;;20.20;99.90;;;;;;5036157;28;20363;-88
2022/08/03 05:45:46;;;;;;;12.38;3.13;;;20.50;99.90;;;;;;5022147;28;20512;-83
2022/08/03 05:48:11;;;;;;;10.60;2.70;;;20.70;99.90;;;;;;5021151;28;20026;-82
2022/08/03 05:50:37;;;;;;;10.25;2.53;;;20.70;99.90;;;;;;5019990;28;20021;-81
2022/08/03 05:53:03;;;;;;;25.38;2.90;;;20.90;99.90;;;;;;5030630;28;20366;-81
2022/08/03 05:55:29;;;;;;;17.85;2.90;;;21.00;99.90;;;;;;5028933;28;20091;-79
2022/08/03 05:57:54;;;;;;;12.98;3.13;;;21.10;99.90;;;;;;5029142;28;20026;-81
2022/08/03 06:00:20;;;;;;;15.52;3.17;;;21.20;99.90;;;;;;5031318;28;20040;-80
2022/08/03 06:02:46;;;;;;;15.55;3.10;;;21.00;99.90;;;;;;5029841;28;20393;-81
2022/08/03 06:05:12;;;;;;;15.68;3.40;;;21.00;99.90;;;;;;5030082;28;20026;-79
2022/08/03 06:07:37;;;;;;;12.38;2.78;;;21.00;99.90;;;;;;5031461;28;20173;-78
2022/08/03 06:10:04;;;;;;;13.93;3.22;;;20.70;99.90;;;;;;5031180;28;20032;-78
2022/08/03 06:12:30;;;;;;;13.27;2.65;;;20.90;99.90;;;;;;5012011;28;20033;-79
2022/08/03 06:14:57;;;;;;;14.02;3.05;;;21.20;99.90;;;;;;5021344;28;20061;-78
2022/08/03 06:17:22;;;;;;;14.23;2.65;;;21.20;99.90;;;;;;5030487;28;20025;-78
2022/08/03 06:19:52;;;;;;;20.23;3.55;;;21.00;99.90;;;;;;5031595;28;20037;-77
2022/08/03 06:22:17;;;;;;;26.25;3.35;;;21.00;99.90;;;;;;5033549;28;20037;-80
2022/08/03 06:24:43;;;;;;;12.80;3.20;;;21.30;99.90;;;;;;5031997;28;20021;-80
2022/08/03 06:27:11;;;;;;;12.25;2.70;;;21.40;99.90;;;;;;5034020;28;20033;-79
2022/08/03 06:29:37;;;;;;;15.73;3.33;;;21.50;99.90;;;;;;5033062;28;20537;-77
2022/08/03 06:32:02;;;;;;;18.98;3.28;;;21.60;99.90;;;;;;5033190;28;20121;-79
2022/08/03 06:34:28;;;;;;;20.02;3.00;;;21.40;99.90;;;;;;5033874;28;20025;-80
2022/08/03 06:36:54;;;;;;;11.85;2.65;;;21.60;99.90;;;;;;5033682;28;20381;-79
2022/08/03 06:39:20;;;;;;;15.02;2.75;;;21.50;99.90;;;;;;5034878;28;20482;-79
2022/08/03 06:41:46;;;;;;;16.70;2.58;;;21.60;99.90;;;;;;5034693;28;20041;-79
2022/08/03 06:44:12;;;;;;;21.88;3.55;;;22.00;99.90;;;;;;5034902;28;20029;-73
2022/08/03 06:46:38;;;;;;;13.50;2.55;;;22.10;99.90;;;;;;5034980;28;20037;-79
2022/08/03 06:49:05;;;;;;;12.77;2.45;;;22.00;99.90;;;;;;5016992;28;20018;-80
2022/08/03 06:51:31;;;;;;;13.75;2.60;;;22.20;99.90;;;;;;5034787;28;20028;-79
2022/08/03 06:53:57;;;;;;;19.10;2.50;;;22.30;99.90;;;;;;5034501;28;20033;-82
2022/08/03 06:56:22;;;;;;;11.55;2.85;;;22.50;99.90;;;;;;5034809;28;20022;-82
2022/08/03 06:58:48;;;;;;;13.02;2.55;;;22.60;99.90;;;;;;5034281;28;20470;-81
2022/08/03 07:01:14;;;;;;;14.02;2.80;;;22.60;99.90;;;;;;5034402;28;20080;-84
2022/08/03 07:03:40;;;;;;;16.40;2.78;;;22.60;99.90;;;;;;5033431;28;20026;-82
2022/08/03 07:06:06;;;;;;;11.60;2.50;;;22.60;99.90;;;;;;5034543;28;20405;-81
2022/08/03 07:08:32;;;;;;;17.33;2.65;;;22.60;99.90;;;;;;5032972;28;20108;-82
2022/08/03 07:10:57;;;;;;;10.18;2.17;;;22.60;99.90;;;;;;5033188;28;20112;-82
2022/08/03 07:13:23;;;;;;;15.38;2.80;;;22.60;99.90;;;;;;5029783;28;20073;-81
2022/08/03 07:15:49;;;;;;;11.38;2.25;;;22.70;99.90;;;;;;5025031;28;20036;-82
2022/08/03 07:18:15;;;;;;;12.30;2.30;;;22.70;99.90;;;;;;5032964;28;20025;-81
2022/08/03 07:20:41;;;;;;;15.10;2.33;;;22.80;99.90;;;;;;5034246;28;20037;-85
2022/08/03 07:23:07;;;;;;;17.00;3.03;;;23.00;99.90;;;;;;5033834;28;20079;-82
2022/08/03 07:25:32;;;;;;;18.10;2.90;;;23.40;99.90;;;;;;5034268;28;20469;-82
2022/08/03 07:27:58;;;;;;;13.13;2.65;;;23.30;99.90;;;;;;5034187;28;20025;-77
2022/08/03 07:30:24;;;;;;;16.48;2.50;;;23.20;99.90;;;;;;5032770;28;20033;-82
2022/08/03 07:32:50;;;;;;;11.27;2.90;;;23.30;99.90;;;;;;5012658;28;20485;-82
2022/08/03 07:35:16;;;;;;;15.55;2.65;;;23.50;99.90;;;;;;5017812;28;20032;-82
2022/08/03 07:37:41;;;;;;;16.48;2.13;;;23.70;99.90;;;;;;5018802;28;20022;-82
2022/08/03 07:40:07;;;;;;;14.75;3.25;;;23.80;99.90;;;;;;5017448;28;20038;-83
2022/08/03 07:42:33;;;;;;;16.20;2.75;;;23.80;99.90;;;;;;5016957;28;20151;-82
2022/08/03 07:44:59;;;;;;;14.27;2.60;;;24.00;99.90;;;;;;5028736;28;20466;-82
2022/08/03 07:47:27;;;;;;;16.45;3.05;;;24.20;99.90;;;;;;5021913;28;20065;-82
2022/08/03 07:49:52;;;;;;;25.60;3.35;;;24.50;99.90;;;;;;5028108;28;20021;-82
2022/08/03 07:55:05;;;;;;;17.02;2.63;;;24.40;99.90;;;;;;5027014;28;20386;-82
2022/08/03 07:57:31;;;;;;;10.60;1.80;;;24.00;99.90;;;;;;5024207;28;20080;-82
2022/08/03 07:59:57;;;;;;;10.10;2.65;;;23.90;99.90;;;;;;5019425;28;20033;-82
2022/08/03 08:02:22;;;;;;;14.82;2.47;;;23.80;99.90;;;;;;5030488;28;20032;-83
2022/08/03 08:04:48;;;;;;;14.30;2.47;;;24.20;99.90;;;;;;5028722;28;20026;-82
2022/08/03 08:07:14;;;;;;;16.13;2.47;;;24.20;99.90;;;;;;5031005;28;20028;-84
2022/08/03 08:09:40;;;;;;;27.25;3.00;;;24.00;99.90;;;;;;5021000;28;20038;-84
2022/08/03 08:12:06;;;;;;;15.82;2.72;;;24.40;99.90;;;;;;5020130;28;20025;-82
2022/08/03 08:14:33;;;;;;;14.85;2.92;;;24.40;99.90;;;;;;5019402;28;20020;-82
2022/08/03 08:16:59;;;;;;;19.17;2.75;;;24.60;99.90;;;;;;5021325;28;20087;-82
2022/08/03 08:19:24;;;;;;;13.23;2.80;;;25.10;99.90;;;;;;5031070;28;20156;-81
2022/08/03 08:21:50;;;;;;;16.55;2.90;;;25.10;99.90;;;;;;5030595;28;20049;-82
2022/08/03 08:24:16;;;;;;;15.85;2.97;;;25.20;99.90;;;;;;5032311;28;20029;-83
2022/08/03 08:26:41;;;;;;;14.32;3.15;;;25.70;99.90;;;;;;5031054;28;20470;-82
2022/08/03 08:29:07;;;;;;;24.25;3.35;;;25.60;99.90;;;;;;5031888;28;20075;-82
2022/08/03 08:31:33;;;;;;;13.57;3.33;;;25.60;99.90;;;;;;5029184;28;20021;-82
2022/08/03 08:33:59;;;;;;;14.80;2.92;;;25.50;99.90;;;;;;5023083;28;20032;-82
2022/08/03 08:36:24;;;;;;;19.23;2.78;;;25.40;99.90;;;;;;5023678;28;20370;-82
2022/08/03 08:38:50;;;;;;;20.98;2.42;;;25.20;99.90;;;;;;5026905;28;20432;-82
2022/08/03 08:41:16;;;;;;;20.98;3.70;;;25.30;99.90;;;;;;5022301;28;20114;-82
2022/08/03 08:43:42;;;;;;;17.88;3.25;;;25.20;99.90;;;;;;5024412;28;20071;-83
2022/08/03 08:46:12;;;;;;;19.88;2.72;;;25.40;99.90;;;;;;5023351;28;20029;-83
2022/08/03 08:48:42;;;;;;;14.50;3.50;;;25.80;99.90;;;;;;5029363;28;20025;-82
2022/08/03 08:51:10;;;;;;;18.45;3.03;;;25.80;99.90;;;;;;5024972;28;20060;-82
2022/08/03 08:53:37;;;;;;;20.80;3.45;;;25.90;99.90;;;;;;5018666;28;20022;-83
2022/08/03 08:56:04;;;;;;;17.20;3.08;;;25.90;99.90;;;;;;5021368;28;20125;-82
2022/08/03 08:58:36;;;;;;;20.92;3.38;;;26.00;99.90;;;;;;5010091;28;20030;-82
2022/08/03 09:01:02;;;;;;;14.80;2.92;;;26.40;99.90;;;;;;5011299;28;20045;-83
2022/08/03 09:03:33;;;;;;;10.90;3.13;;;26.50;99.90;;;;;;5011225;28;20513;-83
2022/08/03 09:06:00;;;;;;;14.23;2.97;;;26.80;99.90;;;;;;5010240;28;20037;-83
2022/08/03 09:08:25;;;;;;;21.80;3.50;;;26.90;99.90;;;;;;5011664;28;20056;-83
2022/08/03 09:10:51;;;;;;;18.60;2.85;;;26.70;99.90;;;;;;5011359;28;20018;-83
2022/08/03 09:13:17;;;;;;;15.38;3.00;;;26.90;99.90;;;;;;5012990;28;20092;-83
2022/08/03 09:15:43;;;;;;;12.95;3.08;;;26.70;99.90;;;;;;5022036;28;20072;-82
2022/08/03 09:18:11;;;;;;;20.38;3.05;;;26.70;99.90;;;;;;5032255;28;20053;-83
2022/08/03 09:20:36;;;;;;;20.05;3.30;;;26.80;99.90;;;;;;5026137;28;20050;-83
2022/08/03 09:23:08;;;;;;;20.95;3.20;;;26.80;99.90;;;;;;5021532;28;20552;-83
2022/08/03 09:25:37;;;;;;;21.15;2.88;;;26.90;99.90;;;;;;5024272;28;20116;-82
2022/08/03 09:28:05;;;;;;;18.10;2.70;;;27.30;99.90;;;;;;5015034;28;20453;-83
2022/08/03 09:30:31;;;;;;;16.48;3.08;;;27.60;99.90;;;;;;5024689;28;20037;-83
2022/08/03 09:33:08;;;;;;;16.50;3.72;;;27.50;99.90;;;;;;5020981;28;20029;-75
2022/08/03 09:35:45;;;;;;;21.35;2.33;;;27.70;99.90;;;;;;5020006;28;20029;-82
2022/08/03 09:38:13;;;;;;;17.67;2.55;;;27.50;99.90;;;;;;5022728;28;20045;-81
2022/08/03 09:40:39;;;;;;;17.83;3.38;;;27.30;99.90;;;;;;5024507;28;20055;-82
2022/08/03 09:43:09;;;;;;;15.38;2.80;;;27.80;99.90;;;;;;5023676;28;20018;-82
2022/08/03 09:45:39;;;;;;;15.65;3.70;;;28.40;99.90;;;;;;5023184;28;20029;-81
2022/08/03 09:48:28;;;;;;;10.70;2.10;;;28.20;99.80;;;;;;5021086;28;20026;-84
2022/08/03 09:51:02;;;;;;;21.85;3.08;;;28.10;99.80;;;;;;5022338;28;20493;-80
2022/08/03 09:53:28;;;;;;;16.60;3.25;;;28.50;99.80;;;;;;5017525;28;20045;-82
2022/08/03 09:56:01;;;;;;;14.82;3.08;;;28.80;98.90;;;;;;5027701;28;20020;-85
2022/08/03 09:58:30;;;;;;;13.05;3.17;;;29.40;97.90;;;;;;5024040;28;20048;-84
2022/08/03 10:01:04;;;;;;;10.23;3.00;;;28.70;98.60;;;;;;5016459;28;20405;-82
2022/08/03 10:03:36;;;;;;;15.82;2.78;;;28.70;98.00;;;;;;5028201;28;20026;-82
2022/08/03 10:06:16;;;;;;;19.17;3.50;;;28.80;98.60;;;;;;5020293;28;20034;-81
2022/08/03 10:08:42;;;;;;;18.05;2.90;;;28.70;98.50;;;;;;5019765;28;20088;-88
2022/08/03 10:11:08;;;;;;;9.65;1.88;;;28.70;98.70;;;;;;5020489;28;20022;-81
2022/08/03 10:13:35;;;;;;;15.82;2.58;;;28.70;98.60;;;;;;5030490;28;20021;-84
2022/08/03 10:16:03;;;;;;;11.35;2.50;;;29.30;98.70;;;;;;5024713;28;20030;-84
2022/08/03 10:18:29;;;;;;;20.23;2.55;;;29.10;98.00;;;;;;5032974;28;20117;-82
2022/08/03 10:21:03;;;;;;;16.45;2.65;;;29.00;98.10;;;;;;5033745;28;20040;-81
2022/08/03 10:23:33;;;;;;;15.15;2.67;;;28.90;98.40;;;;;;5025232;28;20029;-82
2022/08/03 10:26:02;;;;;;;13.20;2.20;;;29.30;98.10;;;;;;5023449;28;20389;-82
2022/08/03 10:28:39;;;;;;;15.43;2.15;;;28.90;98.00;;;;;;5028121;28;20029;-84
2022/08/03 10:31:06;;;;;;;9.68;1.90;;;29.20;97.80;;;;;;5022402;28;20037;-89
2022/08/03 10:33:36;;;;;;;14.27;1.90;;;29.30;97.50;;;;;;5030894;28;20026;-82
2022/08/03 10:36:05;;;;;;;8.40;2.20;;;29.30;97.90;;;;;;5027871;28;20104;-86
2022/08/03 10:38:44;;;;;;;12.27;2.38;;;29.50;97.80;;;;;;5025099;28;20033;-87
2022/08/03 10:41:12;;;;;;;11.90;2.83;;;29.40;97.80;;;;;;5025765;28;20466;-85
2022/08/03 10:43:50;;;;;;;11.35;2.47;;;30.00;97.20;;;;;;5021187;28;20056;-81
2022/08/03 10:46:20;;;;;;;9.43;2.45;;;30.50;96.90;;;;;;5023522;28;20061;-81
2022/08/03 10:48:47;;;;;;;14.63;2.10;;;31.00;96.10;;;;;;5017460;28;20410;-82
2022/08/03 10:51:13;;;;;;;11.77;1.90;;;31.20;95.40;;;;;;5028266;28;20021;-82
2022/08/03 10:53:42;;;;;;;11.32;1.90;;;30.50;95.80;;;;;;5026281;28;20075;-81
2022/08/03 10:59:39;;;;;;;10.40;1.67;;;29.60;96.90;;;;;;5020970;28;20025;-83
2022/08/03 11:02:08;;;;;;;14.13;2.08;;;29.60;96.80;;;;;;5027765;28;20052;-82
2022/08/03 11:04:34;;;;;;;16.90;2.15;;;29.90;96.70;;;;;;5025534;28;20022;-86
2022/08/03 11:07:18;;;;;;;13.05;1.92;;;30.30;96.60;;;;;;5022476;28;20080;-84
2022/08/03 11:09:48;;;;;;;8.32;1.52;;;30.20;95.50;;;;;;5014873;28;20021;-83
2022/08/03 11:12:31;;;;;;;9.05;1.85;;;30.40;95.40;;;;;;5023244;28;20540;-83
2022/08/03 11:15:03;;;;;;;9.63;1.75;;;30.60;95.50;;;;;;5030326;28;20535;-81
2022/08/03 11:17:29;;;;;;;9.38;1.88;;;30.70;95.00;;;;;;5031006;28;20381;-82
2022/08/03 11:19:55;;;;;;;15.55;1.95;;;30.40;95.50;;;;;;5026031;28;20025;-83
2022/08/03 11:22:20;;;;;;;8.55;2.08;;;30.00;96.40;;;;;;5028920;28;20080;-91
2022/08/03 11:24:50;;;;;;;10.20;2.17;;;30.30;95.90;;;;;;5022707;28;20430;-84
2022/08/03 11:27:21;;;;;;;9.18;1.67;;;30.50;95.40;;;;;;5029392;28;20057;-83
2022/08/03 11:30:06;;;;;;;12.65;2.08;;;30.60;95.40;;;;;;5026882;28;20450;-82
2022/08/03 11:32:43;;;;;;;9.15;1.75;;;31.00;95.20;;;;;;5025373;28;20049;-84
2022/08/03 11:35:10;;;;;;;12.98;2.40;;;31.00;95.20;;;;;;5019247;28;20028;-83
2022/08/03 11:37:55;;;;;;;8.00;1.70;;;30.20;95.20;;;;;;5021448;28;20033;-81
2022/08/03 11:40:45;;;;;;;5.47;1.60;;;30.90;95.20;;;;;;5022485;28;20029;-90
2022/08/03 11:43:29;;;;;;;8.85;1.77;;;30.50;95.20;;;;;;5022223;28;20466;-83
2022/08/03 11:46:16;;;;;;;10.88;1.17;;;30.60;95.10;;;;;;5031491;28;20037;-86
2022/08/03 11:48:45;;;;;;;7.85;1.52;;;30.50;94.80;;;;;;5027667;28;20029;-82
2022/08/03 11:51:25;;;;;;;9.02;1.65;;;30.70;94.80;;;;;;5026279;28;20028;-88
2022/08/03 11:54:03;;;;;;;10.50;1.27;;;31.20;94.60;;;;;;5017821;28;20017;-82
2022/08/03 11:56:49;;;;;;;8.60;1.75;;;31.40;94.20;;;;;;5012697;28;20474;-87
2022/08/03 11:59:18;;;;;;;7.68;2.00;;;31.20;94.50;;;;;;5024030;28;20049;-82
2022/08/03 12:01:44;;;;;;;10.35;1.95;;;31.30;94.20;;;;;;5019630;28;20041;-82
2022/08/03 12:04:10;;;;;;;7.10;1.55;;;32.00;94.00;;;;;;5018412;28;20040;-86
2022/08/03 12:06:55;;;;;;;6.30;2.03;;;32.20;93.10;;;;;;5018564;28;20034;-82
2022/08/03 12:09:21;;;;;;;8.32;1.95;;;31.80;93.50;;;;;;5015764;28;20441;-81
2022/08/03 12:11:48;;;;;;;8.68;1.90;;;32.20;93.10;;;;;;5024360;28;20017;-83
2022/08/03 12:14:18;;;;;;;9.85;1.58;;;32.40;93.10;;;;;;5023391;28;20040;-81
2022/08/03 12:16:48;;;;;;;8.50;2.50;;;32.10;93.30;;;;;;5030185;28;20017;-81
2022/08/03 12:19:14;;;;;;;13.02;2.20;;;32.80;92.90;;;;;;5032095;28;20025;-81
2022/08/03 12:21:47;;;;;;;5.30;1.40;;;32.50;92.50;;;;;;5031048;28;20026;-81
2022/08/03 12:24:13;;;;;;;7.40;1.65;;;32.30;92.80;;;;;;5030714;28;20121;-83
2022/08/03 12:26:46;;;;;;;5.68;1.52;;;31.80;92.80;;;;;;5031238;28;20029;-81
2022/08/03 12:29:24;;;;;;;8.57;1.60;;;31.90;92.70;;;;;;5029115;28;20382;-81
2022/08/03 12:31:50;;;;;;;6.15;1.38;;;31.70;93.00;;;;;;5028847;28;20112;-80
2022/08/03 12:34:16;;;;;;;5.00;1.60;;;32.20;93.20;;;;;;5032779;28;20028;-80
2022/08/03 12:36:55;;;;;;;11.35;1.73;;;32.70;92.50;;;;;;5032721;28;20476;-82
2022/08/03 12:39:26;;;;;;;8.80;1.90;;;33.20;92.20;;;;;;5032720;28;20033;-82
2022/08/03 12:41:53;;;;;;;10.57;2.00;;;33.10;92.20;;;;;;5032968;28;20425;-81
2022/08/03 12:44:29;;;;;;;8.70;1.50;;;33.70;91.70;;;;;;5032801;28;20496;-83
2022/08/03 12:46:57;;;;;;;9.95;1.90;;;32.70;92.00;;;;;;5032600;28;20428;-86
2022/08/03 12:49:23;;;;;;;10.30;1.83;;;32.50;92.50;;;;;;5032873;28;20025;-80
2022/08/03 12:51:49;;;;;;;5.45;1.52;;;32.30;92.40;;;;;;5032591;28;20092;-80
2022/08/03 12:54:21;;;;;;;9.23;1.52;;;32.70;92.20;;;;;;5032667;28;20141;-85
2022/08/03 12:57:16;;;;;;;3.83;1.65;;;33.10;91.90;;;;;;5032043;28;20029;-81
2022/08/03 12:59:47;;;;;;;10.25;1.60;;;33.40;91.50;;;;;;5031885;28;20073;-84